Flight Track Log - Related Links

Times and Time Zones

All times are in EDT time to prevent confusion due to time zone crossing. See the AAL1398 flight status page for this flight to view local times or setup timezone preferences in your user account.

Time Position Orientation Groundspeed Altitude Reporting Facility
EDT Latitude Longitude Course Direction KTS MPH feet Rate Location/Type
Wed 01:03:00 PM 18.6719 -69.8408 329° Northwest  Level FlightAware Approximate
Wed 01:04:00 PM 18.7618 -69.8969 329° Northwest  Level FlightAware Approximate
Wed 01:05:00 PM 18.8472 -69.9604 325° Northwest  Level FlightAware Approximate
Wed 01:06:00 PM 18.9323 -70.0242 325° Northwest  Level FlightAware Approximate
Wed 01:07:00 PM 19.0175 -70.0881 325° Northwest  Level FlightAware Approximate
Wed 01:08:00 PM 19.1027 -70.1519 325° Northwest  Level FlightAware Approximate
Wed 01:09:00 PM 19.1887 -70.2147 328° Northwest  Level FlightAware Approximate
Wed 01:10:00 PM 19.2770 -70.2736 328° Northwest  Level FlightAware Approximate
Wed 01:11:00 PM 19.3626 -70.3367 323° Northwest  Level FlightAware Approximate
Wed 01:12:00 PM 19.4460 -70.4034 323° Northwest  Level FlightAware Approximate
Wed 01:12:44 PM 19.1725 -70.2103 325° Northwest 453 521 28,100  Level Miami Center
Wed 01:13:00 PM 19.5304 -70.4686 325° Northwest  Level FlightAware Approximate
Wed 01:13:44 PM 19.2667 -70.2717 328° Northwest 423 487 29,700  Level Miami Center
Wed 01:14:00 PM 19.6157 -70.5325 325° Northwest  Level FlightAware Approximate
Wed 01:14:44 PM 19.3592 -70.3419 324° Northwest 417 480 31,300  Level Miami Center
Wed 01:15:00 PM 19.7029 -70.5931 335° Northwest  Level FlightAware Approximate
Wed 01:15:44 PM 19.4536 -70.4122 325° Northwest 417 480 33,100  Level Miami Center
Wed 01:16:00 PM 19.7907 -70.6514 325° Northwest  Level FlightAware Approximate
Wed 01:16:44 PM 19.5481 -70.4803 326° Northwest 417 480 34,400  Level Miami Center
Wed 01:17:00 PM 19.8760 -70.7153 325° Northwest  Level FlightAware Approximate
Wed 01:17:44 PM 19.6425 -70.5464 327° Northwest 417 480 35,900  Level Miami Center
Wed 01:18:44 PM 19.7347 -70.6147 325° Northwest 412 474 36,100 100 Climbing Miami Center
Wed 01:19:44 PM 19.8292 -70.6833 326° Northwest 412 474 36,100  Level Miami Center
Wed 01:20:44 PM 19.9214 -70.7519 325° Northwest 417 480 36,100  Level Miami Center
Wed 01:21:44 PM 20.0114 -70.8206 324° Northwest 411 473 36,100  Level Miami Center
Wed 01:22:44 PM 20.1036 -70.8872 326° Northwest 411 473 36,100  Level Miami Center
Wed 01:23:44 PM 20.1981 -70.9583 325° Northwest 416 479 36,100  Level Miami Center
Wed 01:24:44 PM 20.2881 -71.0272 324° Northwest 416 479 36,100  Level Miami Center
Wed 01:25:44 PM 20.3844 -71.0961 326° Northwest 416 479 36,100  Level Miami Center
Wed 01:26:44 PM 20.4650 -71.1922 312° West 406 467 36,100  Level Miami Center
Wed 01:27:44 PM 20.5289 -71.2869 306° West 400 460 36,100  Level Miami Center
Wed 01:28:44 PM 20.5950 -71.3861 305° West 406 467 36,100  Level Miami Center
Wed 01:29:44 PM 20.6589 -71.4833 305° West 406 467 36,100  Level Miami Center
Wed 01:30:44 PM 20.7247 -71.5783 307° West 406 467 36,100  Level Miami Center
Wed 01:31:44 PM 20.7886 -71.6756 305° West 406 467 36,100  Level Miami Center
Wed 01:32:44 PM 20.8522 -71.7731 305° West 406 467 36,100  Level Miami Center
Wed 01:33:44 PM 20.9181 -71.8706 306° West 406 467 36,100  Level Miami Center
Wed 01:34:44 PM 20.9836 -71.9703 305° West 406 467 36,100  Level Miami Center
Wed 01:35:44 PM 21.0472 -72.0678 305° West 406 467 36,100  Level Miami Center
Wed 01:36:44 PM 21.1128 -72.1633 306° West 406 467 36,100  Level Miami Center
Wed 01:37:44 PM 21.1783 -72.2633 305° West 406 467 36,100  Level Miami Center
Wed 01:38:44 PM 21.2439 -72.3614 306° West 406 467 36,100  Level Miami Center
Wed 01:39:44 PM 21.3072 -72.4550 306° West 406 467 36,100  Level Miami Center
Wed 01:40:44 PM 21.3725 -72.5553 305° West 406 467 36,100  Level Miami Center
Wed 01:41:44 PM 21.4378 -72.6511 306° West 406 467 36,100  Level Miami Center
Wed 01:42:44 PM 21.4989 -72.7497 304° West 406 467 36,100  Level Miami Center
Wed 01:43:44 PM 21.5642 -72.8481 306° West 406 467 36,100  Level Miami Center
Wed 01:44:44 PM 21.6272 -72.9467 305° West 406 467 36,100  Level Miami Center
Wed 01:45:44 PM 21.6881 -73.0431 304° West 406 467 36,100  Level Miami Center
Wed 01:46:44 PM 21.7511 -73.1419 304° West 406 467 36,100  Level Miami Center
Wed 01:47:44 PM 21.8119 -73.2386 304° West 406 467 36,100  Level Miami Center
Wed 01:48:44 PM 21.8747 -73.3353 305° West 406 467 36,100  Level Miami Center
Wed 01:49:44 PM 21.9394 -73.4319 306° West 406 467 36,100  Level Miami Center
Wed 01:50:44 PM 22.0003 -73.5311 304° West 406 467 36,100  Level Miami Center
Wed 01:51:44 PM 22.0650 -73.6281 306° West 401 461 36,100  Level Miami Center
Wed 01:52:44 PM 22.1169 -73.7142 303° West 396 456 36,100  Level Miami Center
Wed 01:53:44 PM 22.1772 -73.8114 304° West 389 448 36,100  Level Miami Center
Wed 01:54:44 PM 22.2378 -73.9108 303° West 389 448 36,100  Level Miami Center
Wed 01:55:44 PM 22.3042 -74.0058 307° West 394 453 36,100  Level Miami Center
Wed 01:56:44 PM 22.3667 -74.1033 305° West 394 453 36,100  Level Miami Center
Wed 01:57:44 PM 22.4247 -74.2011 303° West 394 453 36,100  Level Miami Center
Wed 01:58:44 PM 22.4892 -74.2986 306° West 394 453 36,100  Level Miami Center
Wed 01:59:44 PM 22.5514 -74.3986 304° West 394 453 36,100  Level Miami Center
Wed 02:00:44 PM 22.6114 -74.4986 303° West 394 453 36,100  Level Miami Center
Wed 02:01:44 PM 22.6756 -74.5967 305° West 394 453 36,100  Level Miami Center
Wed 02:02:44 PM 22.7375 -74.6944 304° West 394 453 36,100  Level Miami Center
Wed 02:03:44 PM 22.8017 -74.7903 306° West 394 453 36,100  Level Miami Center
Wed 02:04:44 PM 22.8636 -74.8886 304° West 394 453 36,100  Level Miami Center
Wed 02:05:44 PM 22.9253 -74.9869 304° West 394 453 36,100  Level Miami Center
Wed 02:06:44 PM 22.9872 -75.0875 304° West 394 453 36,100  Level Miami Center
Wed 02:07:44 PM 23.0489 -75.1858 304° West 394 453 36,100  Level Miami Center
Wed 02:08:44 PM 23.1083 -75.2822 304° West 394 453 36,100  Level Miami Center
Wed 02:09:44 PM 23.1700 -75.3811 304° West 394 453 36,100  Level Miami Center
Wed 02:10:44 PM 23.2294 -75.4797 303° West 394 453 36,100  Level Miami Center
Wed 02:11:44 PM 23.2908 -75.5764 305° West 394 453 36,100  Level Miami Center
Wed 02:12:44 PM 23.3525 -75.6797 303° West 389 448 36,100  Level Miami Center
Wed 02:13:44 PM 23.4094 -75.7744 303° West 401 461 36,100  Level Miami Center
Wed 02:14:44 PM 23.4647 -75.8758 301° West 401 461 36,100  Level Miami Center
Wed 02:15:44 PM 23.5239 -75.9933 299° West 401 461 36,100  Level Miami Center
Wed 02:16:44 PM 23.5703 -76.0836 299° West 396 456 36,100  Level Miami Center
Wed 02:17:44 PM 23.6253 -76.1853 301° West 389 448 36,100  Level Miami Center
Wed 02:18:44 PM 23.6778 -76.2894 299° West 389 448 36,100  Level Miami Center
Wed 02:19:44 PM 23.7325 -76.3914 300° West 389 448 36,100  Level Miami Center
Wed 02:20:44 PM 23.7872 -76.4978 299° West 394 453 36,100  Level Miami Center
Wed 02:21:44 PM 23.8397 -76.6000 299° West 394 453 36,100  Level Miami Center
Wed 02:22:44 PM 23.8942 -76.7044 300° West 394 453 36,100  Level Miami Center
Wed 02:23:44 PM 23.9486 -76.8111 299° West 394 453 36,100  Level Miami Center
Wed 02:24:44 PM 24.0050 -76.9225 299° West 394 453 36,100  Level Miami Center
Wed 02:25:44 PM 24.0572 -77.0294 298° West 394 453 36,100  Level Miami Center
Wed 02:26:44 PM 24.1114 -77.1367 299° West 394 453 36,100  Level Miami Center
Wed 02:27:44 PM 24.1653 -77.2439 299° West 399 459 36,100  Level Miami Center
Wed 02:28:44 PM 24.2194 -77.3511 299° West 399 459 36,100  Level Miami Center
Wed 02:29:44 PM 24.2733 -77.4539 300° West 399 459 36,100  Level Miami Center
Wed 02:30:44 PM 24.3253 -77.5636 297° West 399 459 36,100  Level Miami Center
Wed 02:31:44 PM 24.3769 -77.6664 299° West 399 459 36,100  Level Miami Center
Wed 02:32:44 PM 24.4306 -77.7742 299° West 399 459 36,100  Level Miami Center
Wed 02:33:44 PM 24.4842 -77.8794 299° West 399 459 36,100  Level Miami Center
Wed 02:34:44 PM 24.5358 -77.9828 299° West 399 459 36,100  Level Miami Center
Wed 02:35:44 PM 24.5894 -78.0883 299° West 399 459 36,100  Level Miami Center
Wed 02:36:44 PM 24.6367 -78.1825 299° West 399 459 36,100  Level Miami Center
Wed 02:37:44 PM 24.6878 -78.2883 298° West 399 459 36,100  Level Miami Center
Wed 02:38:44 PM 24.7411 -78.3919 300° West 394 453 36,100  Level Miami Center
Wed 02:39:44 PM 24.7903 -78.4978 297° West 394 453 36,100 -950 Level Miami Center
Wed 02:40:44 PM 24.8411 -78.6017 298° West 394 453 34,200 -2,450 Descending Miami Center
Wed 02:41:44 PM 24.8964 -78.7122 299° West 400 460 31,200 -2,850 Descending Miami Center
Wed 02:42:44 PM 24.9556 -78.8278 299° West 421 484 28,500 -2,400 Descending Miami Center
Wed 02:43:44 PM 25.0164 -78.9594 297° West 438 504 26,400 -2,600 Descending Miami Center
Wed 02:44:44 PM 25.0692 -79.0636 299° West 438 504 23,300 -2,800 Descending Miami Center
Wed 02:45:44 PM 25.1258 -79.1794 298° West 438 504 20,800 -2,450 Descending Miami Center
Wed 02:46:44 PM 25.1783 -79.2928 297° West 432 497 18,400 -2,300 Descending Miami Center
Wed 02:47:44 PM 25.2331 -79.3997 300° West 414 476 16,200 -2,150 Descending Miami Center
Wed 02:48:44 PM 25.2833 -79.5017 299° West 396 456 14,100 -2,108 Descending Miami Center
Wed 02:49:35 PM 25.3297 -79.6017 297° West 378 435 12,300 -1,189 Descending Miami Center
Wed 02:50:30 PM 25.3717 -79.6944 297° West 353 406 12,000 -207 Descending Miami Center
Wed 02:51:31 PM 25.4244 -79.7831 303° West 338 389 11,900 -358 Descending Miami Center
Wed 02:52:44 PM 25.4833 -79.8650 309° West 344 396 11,200 -821 Descending Miami Center
Wed 02:53:28 PM 25.5339 -79.9492 304° West 331 381 10,300 -1,100 Descending Miami Center
Wed 02:53:44 PM 25.5461 -79.9633 314° West 339 390 10,100 -1,000 Descending Miami Center
Wed 02:54:34 PM 25.5864 -80.0311 303° West 292 336 9,200 -1,125 Descending Miami Center
Wed 02:55:36 PM 25.6328 -80.1039 305° West 289 333 8,000 -585 Descending Miami Center
Wed 02:56:37 PM 25.6686 -80.1808 297° West 282 325 8,000  Level Miami Center
Wed 02:57:32 PM 25.6900 -80.2575 287° West 273 314 8,000 -569 Level Miami Center
Wed 02:58:33 PM 25.7069 -80.3294 285° West 228 262 6,900 -1,547 Descending Miami Center
Wed 02:59:40 PM 25.7031 -80.4078 267° West 227 261 4,700 -1,359 Descending Miami Center
Wed 03:00:41 PM 25.6994 -80.4769 267° West 214 246 4,000 -724 Descending Miami Center
Wed 03:01:36 PM 25.7192 -80.5167 299° West 181 208 3,300 -545 Descending Miami Center
Wed 03:02:31 PM 25.7592 -80.5064 13° North 183 211 3,000 -327 Descending Miami Center

Login

Don't have an account? Register now (free) for customized features, flight alerts, and more!